createdAt,value
2022-12-19T00:01:39.811Z,170.30
2022-12-19T00:06:44.074Z,189.90
2022-12-19T00:11:52.141Z,191.60
2022-12-19T00:16:57.095Z,158.50
2022-12-19T00:21:59.428Z,167.10
2022-12-19T00:27:01.190Z,172.60
2022-12-19T00:32:04.137Z,130.80
2022-12-19T00:37:05.964Z,110.10
2022-12-19T00:42:07.633Z,109.40
2022-12-19T00:47:09.690Z,120.20
2022-12-19T00:52:12.225Z,125.80
2022-12-19T00:57:13.956Z,151.30
2022-12-19T01:02:15.669Z,144.90
2022-12-19T01:07:17.425Z,150.00
2022-12-19T01:12:37.860Z,147.60
2022-12-19T01:17:43.988Z,149.70
2022-12-19T01:22:47.262Z,159.90
2022-12-19T01:27:48.899Z,168.80
2022-12-19T01:32:50.570Z,173.70
2022-12-19T01:37:53.895Z,177.00
2022-12-19T01:43:14.019Z,157.10
2022-12-19T01:48:22.378Z,155.00
2022-12-19T01:53:27.571Z,145.70
2022-12-19T01:58:30.924Z,120.30
2022-12-19T02:03:34.727Z,121.90
2022-12-19T02:08:37.311Z,118.40
2022-12-19T02:13:39.700Z,119.90
2022-12-19T02:19:21.227Z,126.50
2022-12-19T02:24:29.911Z,119.10
2022-12-19T02:29:50.454Z,127.20
2022-12-19T02:35:18.449Z,118.50
2022-12-19T02:40:29.495Z,136.60
2022-12-19T02:45:37.002Z,165.20
2022-12-19T02:50:41.761Z,171.70
2022-12-19T02:56:22.071Z,169.20
2022-12-19T03:01:36.577Z,188.70
2022-12-19T03:07:03.679Z,193.80
2022-12-19T03:12:15.750Z,182.80
2022-12-19T03:17:19.508Z,156.90
2022-12-19T03:22:22.372Z,146.30
2022-12-19T03:27:33.174Z,133.30
2022-12-19T03:32:38.107Z,101.80
2022-12-19T03:37:42.765Z,129.30
2022-12-19T03:43:06.345Z,131.20
2022-12-19T03:48:19.418Z,151.50
2022-12-19T03:53:50.428Z,127.00
2022-12-19T03:59:00.128Z,138.70
2022-12-19T04:04:03.828Z,136.40
2022-12-19T04:09:06.310Z,139.90
2022-12-19T04:14:14.893Z,136.80
2022-12-19T04:19:23.947Z,155.60
2022-12-19T04:24:33.192Z,172.10
2022-12-19T04:29:38.650Z,157.30
2022-12-19T04:34:43.023Z,162.20
2022-12-19T04:39:45.034Z,193.70
2022-12-19T04:44:47.251Z,147.70
2022-12-19T04:49:49.526Z,148.40
2022-12-19T04:54:51.216Z,119.20
2022-12-19T04:59:52.925Z,144.50
2022-12-19T05:04:55.008Z,147.80
2022-12-19T05:09:56.718Z,143.90
2022-12-19T05:14:58.374Z,153.50
2022-12-19T05:20:00.068Z,158.60
2022-12-19T05:25:01.804Z,152.00
2022-12-19T05:30:03.958Z,165.90
2022-12-19T05:35:06.087Z,155.80
2022-12-19T05:40:10.633Z,158.30
2022-12-19T05:45:12.547Z,155.80
2022-12-19T05:50:15.686Z,169.50
2022-12-19T05:55:17.858Z,158.70
2022-12-19T06:00:19.984Z,160.70
2022-12-19T06:05:21.702Z,148.70
2022-12-19T06:10:23.418Z,130.10
2022-12-19T06:15:25.120Z,138.50
2022-12-19T06:20:26.808Z,134.00
2022-12-19T06:25:28.513Z,230.30
2022-12-19T06:30:30.215Z,163.30
2022-12-19T06:35:31.866Z,142.70
2022-12-19T06:40:52.395Z,171.80
2022-12-19T06:45:54.089Z,149.20
2022-12-19T06:50:55.809Z,231.30
2022-12-19T06:55:59.324Z,193.90
2022-12-19T07:01:01.629Z,210.70
2022-12-19T07:06:05.020Z,214.10
2022-12-19T07:11:06.864Z,238.60
2022-12-19T07:16:09.279Z,206.00
2022-12-19T07:21:11.491Z,216.60
2022-12-19T07:26:13.371Z,268.00
2022-12-19T07:31:15.092Z,267.20
2022-12-19T07:36:16.798Z,301.30
2022-12-19T07:41:18.905Z,327.60
2022-12-19T07:46:21.778Z,338.30
2022-12-19T07:51:23.637Z,321.60
2022-12-19T07:56:25.336Z,332.40
2022-12-19T08:01:28.327Z,322.60
2022-12-19T08:06:31.044Z,294.20
2022-12-19T08:11:32.736Z,289.80
2022-12-19T08:16:55.639Z,285.90
2022-12-19T08:21:58.081Z,260.30
2022-12-19T08:26:59.755Z,281.70
2022-12-19T08:32:01.529Z,270.50
2022-12-19T08:37:03.222Z,220.80
2022-12-19T08:42:05.015Z,253.40
2022-12-19T08:47:06.836Z,319.40
2022-12-19T08:52:08.542Z,334.60
2022-12-19T08:57:10.287Z,328.30
2022-12-19T09:02:12.281Z,349.90
2022-12-19T09:07:15.627Z,349.00
2022-12-19T09:12:17.928Z,294.40
2022-12-19T09:17:19.640Z,283.60
2022-12-19T09:22:21.460Z,261.70
2022-12-19T09:27:29.748Z,258.30
2022-12-19T09:32:32.491Z,273.40
2022-12-19T09:37:34.323Z,215.00
2022-12-19T09:42:49.058Z,350.70
2022-12-19T09:47:57.970Z,254.30
2022-12-19T09:53:06.146Z,272.20
2022-12-19T09:58:13.717Z,242.90
2022-12-19T10:03:41.566Z,242.50
2022-12-19T10:08:54.985Z,334.00
2022-12-19T10:14:36.212Z,246.70
2022-12-19T10:20:05.860Z,218.70
2022-12-19T10:25:29.510Z,131.10
2022-12-19T10:30:39.312Z,103.10
2022-12-19T10:35:43.658Z,105.20
2022-12-19T10:40:53.711Z,106.90
2022-12-19T10:46:02.652Z,114.90
2022-12-19T10:51:06.268Z,114.10
2022-12-19T10:56:25.451Z,121.80
2022-12-19T11:01:40.512Z,116.00
2022-12-19T11:06:48.508Z,110.70
2022-12-19T11:15:18.518Z,117.20
2022-12-19T11:24:22.755Z,104.40
2022-12-19T11:29:40.716Z,114.40
2022-12-19T11:30:47.822Z,109.70
2022-12-19T11:34:07.135Z,107.10
2022-12-19T11:39:50.217Z,96.20
2022-12-19T11:45:14.345Z,98.90
2022-12-19T11:50:26.686Z,93.40
2022-12-19T11:55:41.037Z,80.20
2022-12-19T12:01:03.081Z,69.20
2022-12-19T12:06:13.460Z,64.10
2022-12-19T12:17:28.910Z,66.20
2022-12-19T12:31:05.201Z,72.30
2022-12-19T12:31:09.677Z,69.30
2022-12-19T12:31:48.871Z,74.20
2022-12-19T12:35:52.123Z,75.70
2022-12-19T12:40:13.089Z,69.10
2022-12-19T12:45:26.126Z,76.70
2022-12-19T12:50:28.726Z,67.80
2022-12-19T12:55:35.249Z,59.10
2022-12-19T13:00:37.097Z,59.60
2022-12-19T13:11:02.893Z,62.90
2022-12-19T13:16:43.003Z,64.20
2022-12-19T13:22:03.609Z,54.90
2022-12-19T13:27:25.213Z,47.20
2022-12-19T13:32:33.656Z,51.90
2022-12-19T13:40:00.348Z,51.50
2022-12-19T13:43:29.245Z,46.90
2022-12-19T13:48:45.639Z,43.50
2022-12-19T13:53:59.026Z,41.80
2022-12-19T13:59:04.015Z,43.80
2022-12-19T14:04:13.062Z,46.30
2022-12-19T14:11:28.085Z,44.20
2022-12-19T14:15:13.074Z,42.00
2022-12-19T14:22:01.515Z,48.20
2022-12-19T14:28:15.124Z,48.40
2022-12-19T14:31:17.952Z,44.70
2022-12-19T14:36:29.790Z,54.10
2022-12-19T14:54:01.917Z,64.90
2022-12-19T14:54:55.047Z,80.40
2022-12-19T14:58:53.567Z,69.20
2022-12-19T15:09:34.257Z,61.10
2022-12-19T15:14:56.994Z,74.20
2022-12-19T15:19:26.518Z,82.10
2022-12-19T15:29:31.372Z,57.60
2022-12-19T15:34:41.624Z,56.40
2022-12-19T15:39:48.268Z,47.10
2022-12-19T15:49:52.920Z,43.50
2022-12-19T16:00:02.257Z,44.10
2022-12-19T16:05:07.608Z,38.90
2022-12-19T16:10:12.953Z,39.40
2022-12-19T16:15:35.331Z,49.20
2022-12-19T16:20:37.792Z,42.40
2022-12-19T16:25:45.835Z,38.60
2022-12-19T16:30:50.327Z,43.30
2022-12-19T16:36:04.039Z,39.90
2022-12-19T16:41:06.311Z,38.40
2022-12-19T16:46:12.455Z,45.30
2022-12-19T16:51:21.997Z,41.60
2022-12-19T16:56:34.998Z,43.70
2022-12-19T17:01:36.865Z,41.40
2022-12-19T17:06:38.714Z,39.50
2022-12-19T17:16:42.567Z,41.70
2022-12-19T17:21:44.661Z,39.70
2022-12-19T17:26:47.452Z,39.40
2022-12-19T17:31:49.270Z,38.60
2022-12-19T17:36:51.324Z,40.20
2022-12-19T17:41:55.397Z,37.30
2022-12-19T17:46:57.279Z,33.30
2022-12-19T17:51:59.888Z,36.70
2022-12-19T17:57:01.621Z,35.90
2022-12-19T18:07:14.464Z,36.90
2022-12-19T18:12:16.293Z,38.10
2022-12-19T18:17:25.692Z,37.30
2022-12-19T18:22:27.533Z,36.80
2022-12-19T18:27:29.323Z,37.00
2022-12-19T18:32:31.111Z,32.10
2022-12-19T18:47:36.260Z,29.60
2022-12-19T18:57:39.539Z,34.60
2022-12-19T19:07:46.828Z,35.90
2022-12-19T19:12:50.535Z,34.10
2022-12-19T19:17:58.090Z,35.40
2022-12-19T19:23:00.243Z,35.40
2022-12-19T19:28:03.198Z,44.50
2022-12-19T19:33:11.596Z,39.50
2022-12-19T19:38:15.202Z,41.40
2022-12-19T19:43:17.193Z,46.50
2022-12-19T19:48:18.913Z,44.00
